»·PEaware :: SWA1436 KSMF-KSAN

SWA1436 :: KSMF-KSAN

FLIGHT INFORMATION

Flight Status: Arrived
Operator:
Southwest Airlines
More flights by this operator :: More flights under this callsign
Pilot: Kyle A. (14988)
Aircraft: BOEING 737-700
(B737)
More flights by this aircraft type
Origin: KSMF Sacramento Intl
United States
Destination: KSAN San Diego Intl-Lindbergh
United States
More flights between these airports :: More routes between these airports
Route: +FTHIL2 FRA EHF HUULK COMIX1
File this flight plan on PilotEdge
Remarks: / L
Altitude:
(Current/Filed)
35,000ft
Speed:
(Current/Filed)
433kts
Departed: 23-Feb-18 09:21 AM
Arrived: 23-Feb-18 10:31 AM
Distance/Time
Traveled:
417nm/1:09
Distance/Time
To Go:
Arrived

Flight Plot

Page will automatically refresh every two minutes.

Flight plan parsing failed; only flown route is shown


Map Options




Map Legend


Flown Route
Filed Route
Departure Airport
Arrival Airport
Navaid (VOR, NDB)
Fix

Horizontal Profiles

Position Reports

Time Latitude Longitude Heading Altitude Ground
Speed
23-Feb-18 09:09 38.695190 -121.594508 26 35ft 0kts
23-Feb-18 09:10 38.695190 -121.594508 26 35ft 0kts
23-Feb-18 09:11 38.695190 -121.594508 26 35ft 0kts
23-Feb-18 09:12 38.695190 -121.594508 26 35ft 0kts
23-Feb-18 09:13 38.695190 -121.594508 26 35ft 0kts
23-Feb-18 09:14 38.695190 -121.594508 26 35ft 0kts
23-Feb-18 09:15 38.695190 -121.594508 26 35ft 0kts
23-Feb-18 09:16 38.695190 -121.594508 26 35ft 0kts
23-Feb-18 09:17 38.695004 -121.594620 20 35ft 2kts
23-Feb-18 09:18 38.694614 -121.594546 270 35ft 2kts
23-Feb-18 09:19 38.694613 -121.594400 270 35ft 0kts
23-Feb-18 09:20 38.694613 -121.594400 270 35ft 0kts
23-Feb-18 09:21 38.694613 -121.594400 270 35ft 0kts
23-Feb-18 09:22 38.694613 -121.594400 270 35ft 0kts
23-Feb-18 09:23 38.694630 -121.596602 270 35ft 10kts
23-Feb-18 09:24 38.692594 -121.598726 180 35ft 13kts
23-Feb-18 09:25 38.687228 -121.598813 180 35ft 14kts
23-Feb-18 09:26 38.683846 -121.599999 269 35ft 11kts
23-Feb-18 09:27 38.683845 -121.600102 269 35ft 0kts
23-Feb-18 09:28 38.689573 -121.601431 0 36ft 97kts
23-Feb-18 09:29 38.722107 -121.582001 83 2686ft 163kts
23-Feb-18 09:30 38.690362 -121.516383 123 4674ft 260kts
23-Feb-18 09:31 38.645389 -121.437457 124 8460ft 285kts
23-Feb-18 09:32 38.595743 -121.350878 121 11446ft 332kts
23-Feb-18 09:33 38.535664 -121.245862 119 14026ft 385kts
23-Feb-18 09:34 38.470541 -121.131615 118 17127ft 411kts
23-Feb-18 09:35 38.401101 -121.010405 118 19360ft 433kts
23-Feb-18 09:36 38.330086 -120.887128 118 19385ft 429kts
23-Feb-18 09:37 38.259364 -120.765002 119 19378ft 428kts
23-Feb-18 09:38 38.189033 -120.643382 119 19350ft 426kts
23-Feb-18 09:39 38.117956 -120.521710 120 20249ft 432kts
23-Feb-18 09:40 38.045152 -120.396600 118 22914ft 449kts
23-Feb-18 09:41 37.972034 -120.264606 119 25131ft 468kts
23-Feb-18 09:42 37.871226 -120.155576 147 25356ft 485kts
23-Feb-18 09:43 37.753038 -120.071958 147 25364ft 485kts
23-Feb-18 09:44 37.636413 -119.986564 147 25371ft 484kts
23-Feb-18 09:45 37.520207 -119.900576 147 25350ft 483kts
23-Feb-18 09:46 37.404235 -119.815088 148 25354ft 484kts
23-Feb-18 09:47 37.288027 -119.729532 148 25374ft 485kts
23-Feb-18 09:48 37.171105 -119.644081 149 25364ft 485kts
23-Feb-18 09:49 37.048511 -119.575162 166 25375ft 484kts
23-Feb-18 09:50 36.917863 -119.535962 169 25389ft 484kts
23-Feb-18 09:51 36.786597 -119.495935 169 25394ft 485kts
23-Feb-18 09:52 36.655631 -119.455327 169 25395ft 486kts
23-Feb-18 09:53 36.524376 -119.414674 169 25398ft 488kts
23-Feb-18 09:54 36.392368 -119.373913 170 25398ft 488kts
23-Feb-18 09:55 36.260705 -119.333397 170 25399ft 488kts
23-Feb-18 09:56 36.129050 -119.293020 170 25397ft 487kts
23-Feb-18 09:57 35.996020 -119.252357 170 26778ft 496kts
23-Feb-18 09:58 35.863896 -119.212050 172 28280ft 501kts
23-Feb-18 09:59 35.726585 -119.170340 172 29810ft 514kts
23-Feb-18 10:00 35.639460 -119.143994 172 30941ft 514kts
23-Feb-18 10:01 35.502087 -119.102147 170 32964ft 509kts
23-Feb-18 10:02 35.371181 -119.034659 160 34801ft 508kts
23-Feb-18 10:03 35.242429 -118.962636 161 35364ft 506kts
23-Feb-18 10:04 35.115399 -118.891970 161 35331ft 500kts
23-Feb-18 10:05 34.988882 -118.821863 162 35280ft 499kts
23-Feb-18 10:06 34.862255 -118.751942 162 35247ft 498kts
23-Feb-18 10:07 34.736034 -118.682547 162 34591ft 499kts
23-Feb-18 10:08 34.609050 -118.613086 163 33593ft 502kts
23-Feb-18 10:09 34.509807 -118.547026 155 32791ft 511kts
23-Feb-18 10:10 34.388134 -118.459190 157 31792ft 506kts
23-Feb-18 10:11 34.288076 -118.387995 157 30963ft 500kts
23-Feb-18 10:12 34.169890 -118.304027 158 29971ft 494kts
23-Feb-18 10:13 34.077883 -118.238885 158 29189ft 490kts
23-Feb-18 10:14 33.985854 -118.174085 159 28402ft 484kts
23-Feb-18 10:15 33.869706 -118.092641 159 27400ft 480kts
23-Feb-18 10:16 33.779661 -118.031778 161 26620ft 474kts
23-Feb-18 10:17 33.664901 -117.956121 160 25620ft 467kts
23-Feb-18 10:18 33.551468 -117.881425 160 24217ft 461kts
23-Feb-18 10:19 33.442148 -117.803835 151 21954ft 458kts
23-Feb-18 10:20 33.352510 -117.698767 139 19731ft 436kts
23-Feb-18 10:21 33.275433 -117.604652 140 17757ft 421kts
23-Feb-18 10:25 32.962757 -117.337759 148 10534ft 333kts
23-Feb-18 10:26 32.892173 -117.278793 148 9553ft 293kts
23-Feb-18 10:27 32.827975 -117.225416 145 8184ft 276kts
23-Feb-18 10:28 32.796339 -117.144572 103 6814ft 273kts
23-Feb-18 10:29 32.777596 -117.059481 104 5708ft 258kts
23-Feb-18 10:30 32.759822 -116.979909 104 4963ft 239kts
23-Feb-18 10:31 32.735268 -116.908718 153 4732ft 238kts
23-Feb-18 10:32 32.683477 -116.923652 248 3954ft 184kts
23-Feb-18 10:33 32.682057 -116.978437 286 3959ft 167kts
23-Feb-18 10:34 32.694694 -117.029479 285 3060ft 152kts
23-Feb-18 10:35 32.706167 -117.076723 286 2118ft 137kts
23-Feb-18 10:36 32.715996 -117.117230 287 1342ft 127kts
23-Feb-18 10:37 32.725699 -117.157253 287 543ft 122kts
23-Feb-18 10:38 32.734364 -117.192911 285 23ft 37kts
23-Feb-18 10:39 32.733759 -117.195873 193 23ft 0kts
23-Feb-18 10:40 32.733249 -117.196043 197 23ft 0kts
23-Feb-18 10:41 32.733249 -117.196043 197 23ft 0kts
23-Feb-18 10:42 32.733249 -117.196043 197 23ft 0kts
23-Feb-18 10:43 32.733249 -117.196043 197 23ft 0kts
23-Feb-18 10:44 32.733249 -117.196043 197 23ft 0kts
23-Feb-18 10:47 32.733249 -117.196043 197 23ft 0kts
23-Feb-18 10:48 32.733249 -117.196043 197 23ft 0kts
23-Feb-18 10:49 32.733249 -117.196043 197 23ft 0kts
23-Feb-18 10:50 32.733249 -117.196043 197 23ft 0kts
23-Feb-18 10:51 32.733249 -117.196043 197 23ft 0kts
23-Feb-18 10:52 32.733249 -117.196043 197 23ft 0kts
23-Feb-18 10:53 32.733249 -117.196043 197 23ft 0kts

Navigation Log

Ident Type
Flight plan parsing failed, navigation log unavailable